Time;durP1;ratioP1;P1;durP2;ratioP2;P2;SDS_P1;SDS_P2;PMS_P1;PMS_P2;Temp;Humidity;BMP_temperature;BMP_pressure;BME280_temperature;BME280_humidity;BME280_pressure;Samples;Min_cycle;Max_cycle;Signal;HPM_P1;HPM_P2
2023/04/24 00:00:26;;;;;;;8.20;7.30;;;12.60;99.90;;;;;;2083605;28;20056;-74
2023/04/24 00:01:26;;;;;;;7.53;6.72;;;12.60;99.90;;;;;;2092210;28;20637;-73
2023/04/24 00:02:27;;;;;;;7.72;6.72;;;12.60;99.90;;;;;;2081381;28;20086;-73
2023/04/24 00:03:27;;;;;;;8.65;7.22;;;12.60;99.90;;;;;;2081227;28;20044;-73
2023/04/24 00:04:28;;;;;;;9.00;7.93;;;12.60;99.90;;;;;;2073250;28;20017;-73
2023/04/24 00:05:29;;;;;;;10.18;7.85;;;12.60;99.90;;;;;;2073479;28;20589;-74
2023/04/24 00:06:32;;;;;;;8.98;7.40;;;12.60;99.90;;;;;;2083479;28;20487;-74
2023/04/24 00:07:34;;;;;;;8.20;7.38;;;12.60;99.90;;;;;;2090351;28;20020;-74
2023/04/24 00:08:35;;;;;;;7.90;7.10;;;12.60;99.90;;;;;;2090410;28;20032;-73
2023/04/24 00:09:36;;;;;;;12.35;7.43;;;12.60;99.90;;;;;;2083062;28;20547;-74
2023/04/24 00:10:37;;;;;;;11.15;7.93;;;12.60;99.90;;;;;;2085837;28;20280;-73
2023/04/24 00:11:38;;;;;;;11.10;8.75;;;12.60;99.90;;;;;;2086830;28;20526;-74
2023/04/24 00:12:38;;;;;;;11.07;9.27;;;12.60;99.90;;;;;;2083343;28;20036;-74
2023/04/24 00:13:39;;;;;;;10.13;8.25;;;12.60;99.90;;;;;;2086310;28;20524;-74
2023/04/24 00:14:40;;;;;;;9.77;7.95;;;12.60;99.90;;;;;;2086288;28;20037;-73
2023/04/24 00:15:40;;;;;;;9.57;7.70;;;12.60;99.90;;;;;;2079578;28;20448;-73
2023/04/24 00:16:41;;;;;;;9.13;7.43;;;12.60;99.90;;;;;;2073576;28;20511;-74
2023/04/24 00:17:41;;;;;;;8.73;7.47;;;12.50;99.90;;;;;;2088777;28;20025;-73
2023/04/24 00:18:42;;;;;;;8.93;6.97;;;12.50;99.90;;;;;;2084727;28;20037;-74
2023/04/24 00:19:42;;;;;;;9.80;7.90;;;12.50;99.90;;;;;;2079346;28;20033;-74
2023/04/24 00:20:43;;;;;;;9.63;8.20;;;12.50;99.90;;;;;;2068658;28;20590;-73
2023/04/24 00:21:44;;;;;;;11.77;8.43;;;12.50;99.90;;;;;;2073803;28;20074;-73
2023/04/24 00:22:44;;;;;;;8.88;7.78;;;12.50;99.90;;;;;;2086359;28;20347;-74
2023/04/24 00:23:45;;;;;;;8.60;7.35;;;12.50;99.90;;;;;;2086457;28;20325;-74
2023/04/24 00:24:45;;;;;;;7.95;7.05;;;12.50;99.90;;;;;;2079192;28;20080;-73
2023/04/24 00:25:46;;;;;;;10.30;6.82;;;12.50;99.90;;;;;;2076872;28;20098;-74
2023/04/24 00:26:47;;;;;;;8.30;6.80;;;12.40;99.90;;;;;;2073707;28;20470;-74
2023/04/24 00:27:47;;;;;;;9.05;6.82;;;12.50;99.90;;;;;;2078891;28;20021;-73
2023/04/24 00:28:48;;;;;;;7.85;6.57;;;12.50;99.90;;;;;;2085328;28;20017;-74
2023/04/24 00:29:49;;;;;;;8.88;6.60;;;12.50;99.90;;;;;;2083810;28;20025;-74
2023/04/24 00:30:49;;;;;;;7.68;6.80;;;12.50;99.90;;;;;;2075102;28;20033;-74
2023/04/24 00:31:50;;;;;;;7.85;6.65;;;12.50;99.90;;;;;;2068373;28;20041;-73
2023/04/24 00:32:51;;;;;;;8.30;6.90;;;12.50;99.90;;;;;;2068495;28;20022;-72
2023/04/24 00:33:51;;;;;;;7.20;6.13;;;12.50;99.90;;;;;;2072869;28;20100;-73
2023/04/24 00:34:52;;;;;;;7.38;6.60;;;12.50;99.90;;;;;;2077089;28;20400;-73
2023/04/24 00:35:52;;;;;;;7.50;6.53;;;12.50;99.90;;;;;;2074346;28;20572;-73
2023/04/24 00:36:53;;;;;;;9.05;6.70;;;12.50;99.90;;;;;;2078860;28;20522;-73
2023/04/24 00:37:54;;;;;;;6.80;6.10;;;12.50;99.90;;;;;;2084276;28;20503;-74
2023/04/24 00:38:55;;;;;;;7.10;6.22;;;12.50;99.90;;;;;;2079466;28;20041;-73
2023/04/24 00:39:55;;;;;;;6.30;5.70;;;12.50;99.90;;;;;;2078297;28;20095;-72
2023/04/24 00:40:56;;;;;;;6.40;5.80;;;12.50;99.90;;;;;;2072939;28;20148;-73
2023/04/24 00:41:56;;;;;;;7.15;6.15;;;12.50;99.90;;;;;;2075758;28;20153;-73
2023/04/24 00:42:57;;;;;;;7.80;6.90;;;12.50;99.90;;;;;;2075134;28;20543;-74
2023/04/24 00:43:58;;;;;;;8.70;6.45;;;12.50;99.90;;;;;;2071987;28;20560;-74
2023/04/24 00:44:59;;;;;;;8.60;6.63;;;12.50;99.90;;;;;;2075160;28;20103;-74
2023/04/24 00:46:01;;;;;;;8.85;6.43;;;12.50;99.90;;;;;;2074823;28;20174;-72
2023/04/24 00:47:02;;;;;;;7.50;6.53;;;12.50;99.90;;;;;;2074954;28;20038;-73
2023/04/24 00:48:03;;;;;;;7.45;6.40;;;12.50;99.90;;;;;;2075759;28;20204;-74
2023/04/24 00:49:04;;;;;;;6.75;6.05;;;12.50;99.90;;;;;;2088494;28;20032;-73
2023/04/24 00:50:06;;;;;;;7.63;6.07;;;12.60;99.90;;;;;;2076037;28;20152;-73
2023/04/24 00:51:07;;;;;;;7.45;6.57;;;12.60;99.90;;;;;;2074743;28;20025;-73
2023/04/24 00:52:08;;;;;;;7.85;7.05;;;12.60;99.90;;;;;;2073419;28;20595;-73
2023/04/24 00:53:09;;;;;;;10.00;7.00;;;12.60;99.90;;;;;;2088941;28;20075;-73
2023/04/24 00:54:10;;;;;;;7.43;6.32;;;12.60;99.90;;;;;;2086595;28;20033;-73
2023/04/24 00:55:10;;;;;;;7.35;6.50;;;12.60;99.90;;;;;;2078901;28;20033;-73
2023/04/24 00:56:11;;;;;;;7.68;6.45;;;12.60;99.90;;;;;;2070059;28;20126;-72
2023/04/24 00:57:14;;;;;;;7.07;6.20;;;12.60;99.90;;;;;;2080668;28;20227;-73
2023/04/24 00:58:15;;;;;;;8.30;5.90;;;12.60;99.90;;;;;;2072329;28;20037;-73
2023/04/24 00:59:17;;;;;;;7.82;5.93;;;12.60;99.90;;;;;;2068403;28;20049;-72
2023/04/24 01:00:18;;;;;;;6.50;5.80;;;12.60;99.90;;;;;;2075514;28;20033;-73
2023/04/24 01:01:22;;;;;;;6.95;5.82;;;12.60;99.90;;;;;;2089240;28;20097;-74
2023/04/24 01:02:24;;;;;;;7.97;5.70;;;12.60;99.90;;;;;;2084779;28;20093;-74
2023/04/24 01:03:28;;;;;;;7.20;6.15;;;12.60;99.90;;;;;;2086907;28;20036;-73
2023/04/24 01:04:29;;;;;;;7.03;6.25;;;12.60;99.90;;;;;;2076038;28;20120;-73
2023/04/24 01:05:30;;;;;;;7.32;6.20;;;12.60;99.90;;;;;;2067088;28;20038;-73
2023/04/24 01:06:31;;;;;;;9.27;6.68;;;12.60;99.90;;;;;;2080586;28;20123;-73
2023/04/24 01:07:32;;;;;;;10.75;6.35;;;12.60;99.90;;;;;;2087997;28;20495;-73
2023/04/24 01:08:34;;;;;;;7.32;6.20;;;12.60;99.90;;;;;;2074042;28;20025;-73
2023/04/24 01:09:36;;;;;;;8.45;6.68;;;12.60;99.90;;;;;;2076269;28;20554;-73
2023/04/24 01:10:38;;;;;;;8.40;6.68;;;12.60;99.90;;;;;;2082665;28;20289;-74
2023/04/24 01:11:42;;;;;;;8.27;6.97;;;12.60;99.90;;;;;;2082856;28;20120;-74
2023/04/24 01:12:42;;;;;;;9.15;7.20;;;12.60;99.90;;;;;;2074812;28;20578;-73
2023/04/24 01:13:43;;;;;;;8.65;7.05;;;12.60;99.90;;;;;;2076731;28;20033;-73
2023/04/24 01:14:45;;;;;;;9.50;7.05;;;12.60;99.90;;;;;;2082730;28;20821;-74
2023/04/24 01:15:46;;;;;;;7.30;6.53;;;12.60;99.90;;;;;;2082838;28;20025;-74
2023/04/24 01:16:46;;;;;;;8.68;7.20;;;12.60;99.90;;;;;;2074684;28;20083;-71
2023/04/24 01:17:47;;;;;;;7.93;6.47;;;12.60;99.90;;;;;;2084803;28;20400;-74
2023/04/24 01:18:48;;;;;;;8.18;6.93;;;12.60;99.90;;;;;;2091842;28;20032;-74
2023/04/24 01:19:49;;;;;;;7.70;6.88;;;12.50;99.90;;;;;;2087299;28;20019;-74
2023/04/24 01:20:52;;;;;;;7.38;6.57;;;12.50;99.90;;;;;;2082999;28;20041;-74
2023/04/24 01:21:56;;;;;;;8.40;6.57;;;12.50;99.90;;;;;;2079222;28;20068;-75
2023/04/24 01:22:57;;;;;;;9.02;6.78;;;12.50;99.90;;;;;;2082986;28;20028;-74
2023/04/24 01:23:57;;;;;;;7.15;6.18;;;12.50;99.90;;;;;;2091256;28;20151;-72
2023/04/24 01:24:58;;;;;;;8.32;6.32;;;12.50;99.90;;;;;;2084612;28;20033;-72
2023/04/24 01:25:59;;;;;;;8.00;6.60;;;12.50;99.90;;;;;;2082562;28;20305;-73
2023/04/24 01:27:01;;;;;;;9.50;6.47;;;12.40;99.90;;;;;;2074444;28;20587;-74
2023/04/24 01:28:01;;;;;;;9.10;6.60;;;12.50;99.90;;;;;;2082783;28;20020;-74
2023/04/24 01:29:02;;;;;;;8.57;6.72;;;12.40;99.90;;;;;;2086234;28;20021;-74
2023/04/24 01:30:04;;;;;;;6.93;6.22;;;12.40;99.90;;;;;;2075736;28;20125;-74
2023/04/24 01:31:05;;;;;;;8.30;6.53;;;12.40;99.90;;;;;;2083819;28;20422;-73
2023/04/24 01:32:06;;;;;;;7.75;5.93;;;12.40;99.90;;;;;;2094738;28;20068;-74
2023/04/24 01:33:07;;;;;;;8.77;6.47;;;12.40;99.90;;;;;;2082449;28;20206;-73
2023/04/24 01:34:08;;;;;;;8.40;6.90;;;12.40;99.90;;;;;;2076350;28;20191;-73
2023/04/24 01:35:08;;;;;;;9.65;6.97;;;12.40;99.90;;;;;;2082556;28;20041;-73
2023/04/24 01:36:11;;;;;;;12.85;7.60;;;12.40;99.90;;;;;;2082706;28;20027;-73
2023/04/24 01:37:12;;;;;;;8.63;6.68;;;12.40;99.90;;;;;;2083080;28;20036;-73
2023/04/24 01:38:12;;;;;;;8.32;6.57;;;12.40;99.90;;;;;;2082670;28;20349;-73
2023/04/24 01:39:15;;;;;;;9.65;7.05;;;12.40;99.90;;;;;;2084768;28;20464;-73
2023/04/24 01:40:15;;;;;;;8.70;6.82;;;12.40;99.90;;;;;;2082744;28;20896;-74
2023/04/24 01:41:16;;;;;;;10.02;7.85;;;12.40;99.90;;;;;;2071276;28;20073;-74
2023/04/24 01:42:19;;;;;;;8.95;7.25;;;12.40;99.90;;;;;;2094679;28;20154;-74
2023/04/24 01:43:21;;;;;;;8.30;7.30;;;12.40;99.90;;;;;;2094195;28;20036;-74
2023/04/24 01:44:23;;;;;;;7.53;6.50;;;12.40;99.90;;;;;;2076139;28;20026;-73
2023/04/24 01:45:23;;;;;;;7.28;6.55;;;12.50;99.90;;;;;;2074575;28;20025;-73
2023/04/24 01:46:24;;;;;;;8.15;6.40;;;12.50;99.90;;;;;;2067535;28;20413;-73
2023/04/24 01:47:25;;;;;;;6.95;6.13;;;12.50;99.90;;;;;;2077087;28;20033;-73
2023/04/24 01:48:25;;;;;;;8.63;6.45;;;12.50;99.90;;;;;;2092884;28;20056;-73
2023/04/24 01:49:26;;;;;;;9.05;6.93;;;12.50;99.90;;;;;;2091804;28;20066;-73
2023/04/24 01:50:27;;;;;;;8.15;6.38;;;12.50;99.90;;;;;;2083592;28;20035;-73
2023/04/24 01:51:28;;;;;;;7.18;6.20;;;12.50;99.90;;;;;;2086070;28;20048;-72
2023/04/24 01:52:30;;;;;;;9.35;7.22;;;12.60;99.90;;;;;;2084419;28;20343;-72
2023/04/24 01:53:31;;;;;;;11.25;7.90;;;12.60;99.90;;;;;;2082568;28;21062;-73
2023/04/24 01:54:32;;;;;;;9.82;7.50;;;12.60;99.90;;;;;;2091366;28;20096;-72
2023/04/24 01:55:33;;;;;;;8.90;7.00;;;12.60;99.90;;;;;;2082481;28;20053;-73
2023/04/24 01:56:37;;;;;;;7.55;6.57;;;12.60;99.90;;;;;;2076303;28;20034;-72
2023/04/24 01:57:38;;;;;;;8.30;6.90;;;12.60;99.90;;;;;;2074603;28;20056;-72
2023/04/24 01:58:39;;;;;;;11.10;7.80;;;12.60;99.90;;;;;;2082000;28;20046;-73
2023/04/24 01:59:39;;;;;;;8.32;7.10;;;12.60;99.90;;;;;;2091276;28;20078;-73
2023/04/24 02:00:40;;;;;;;9.25;7.22;;;12.60;99.90;;;;;;2082572;28;20029;-72
2023/04/24 02:01:40;;;;;;;8.82;7.20;;;12.60;99.90;;;;;;2082685;28;20567;-73
2023/04/24 02:02:42;;;;;;;8.10;6.97;;;12.60;99.90;;;;;;2084388;28;20575;-72
2023/04/24 02:03:42;;;;;;;8.10;6.43;;;12.60;99.90;;;;;;2080593;28;20068;-72
2023/04/24 02:04:43;;;;;;;7.78;6.65;;;12.60;99.90;;;;;;2073938;28;20025;-72
2023/04/24 02:05:45;;;;;;;8.13;6.40;;;12.70;99.90;;;;;;2068422;28;20029;-72
2023/04/24 02:06:45;;;;;;;8.50;7.10;;;12.60;99.90;;;;;;2076206;28;20022;-72
2023/04/24 02:07:46;;;;;;;10.43;7.20;;;12.70;99.90;;;;;;2073860;28;20040;-73
2023/04/24 02:08:46;;;;;;;8.50;7.15;;;12.60;99.90;;;;;;2077199;28;20032;-72
2023/04/24 02:09:47;;;;;;;11.15;7.47;;;12.60;99.90;;;;;;2083814;28;20422;-73
2023/04/24 02:10:48;;;;;;;9.60;7.38;;;12.60;99.90;;;;;;2082554;28;20056;-73
2023/04/24 02:11:49;;;;;;;8.60;7.00;;;12.60;99.90;;;;;;2084242;28;20315;-71
2023/04/24 02:12:49;;;;;;;8.48;6.95;;;12.60;99.90;;;;;;2074447;28;20041;-73
2023/04/24 02:13:51;;;;;;;8.23;6.55;;;12.60;99.90;;;;;;2073916;28;20079;-73
2023/04/24 02:14:51;;;;;;;7.10;6.18;;;12.60;99.90;;;;;;2082616;28;20100;-73
2023/04/24 02:15:52;;;;;;;7.97;6.32;;;12.60;99.90;;;;;;2084533;28;20412;-73
2023/04/24 02:16:53;;;;;;;7.75;6.30;;;12.60;99.90;;;;;;2074464;28;20034;-75
2023/04/24 02:17:53;;;;;;;7.50;6.28;;;12.60;99.90;;;;;;2073920;28;20041;-76
2023/04/24 02:18:54;;;;;;;7.80;6.63;;;12.60;99.90;;;;;;2082373;28;20033;-75
2023/04/24 02:19:55;;;;;;;8.63;6.53;;;12.60;99.90;;;;;;2091298;28;20082;-75
2023/04/24 02:20:55;;;;;;;8.88;6.43;;;12.60;99.90;;;;;;2084438;28;20039;-76
2023/04/24 02:21:56;;;;;;;7.35;6.55;;;12.60;99.90;;;;;;2081948;28;20082;-75
2023/04/24 02:22:57;;;;;;;6.78;6.05;;;12.60;99.90;;;;;;2082157;28;20025;-75
2023/04/24 02:23:58;;;;;;;8.13;6.40;;;12.60;99.90;;;;;;2083099;28;20036;-76
2023/04/24 02:24:58;;;;;;;6.97;6.20;;;12.60;99.90;;;;;;2084151;28;20579;-76
2023/04/24 02:25:59;;;;;;;6.90;6.20;;;12.70;99.90;;;;;;2089154;28;20098;-75
2023/04/24 02:27:00;;;;;;;8.23;6.45;;;12.60;99.90;;;;;;2091305;28;20043;-76
2023/04/24 02:28:01;;;;;;;7.18;6.20;;;12.60;99.90;;;;;;2082067;28;20052;-75
2023/04/24 02:29:01;;;;;;;8.23;6.20;;;12.60;99.90;;;;;;2075825;28;20408;-75
2023/04/24 02:30:02;;;;;;;8.23;6.40;;;12.60;99.90;;;;;;2082494;28;20017;-76
2023/04/24 02:31:03;;;;;;;9.23;6.03;;;12.60;99.90;;;;;;2093081;28;20039;-75
2023/04/24 02:32:04;;;;;;;8.27;6.97;;;12.60;99.90;;;;;;2082267;28;20056;-75
2023/04/24 02:33:04;;;;;;;7.50;6.68;;;12.60;99.90;;;;;;2079959;28;20065;-75
2023/04/24 02:34:05;;;;;;;7.75;6.72;;;12.60;99.90;;;;;;2082789;28;20059;-75
2023/04/24 02:35:06;;;;;;;6.90;6.20;;;12.60;99.90;;;;;;2086819;28;20103;-75
2023/04/24 02:36:07;;;;;;;7.18;5.97;;;12.60;99.90;;;;;;2090324;28;20029;-75
2023/04/24 02:37:07;;;;;;;8.30;6.57;;;12.60;99.90;;;;;;2089259;28;20025;-75
2023/04/24 02:38:08;;;;;;;7.90;6.35;;;12.60;99.90;;;;;;2081684;28;20032;-75
2023/04/24 02:39:10;;;;;;;10.55;7.25;;;12.60;99.90;;;;;;2074185;28;20037;-75
2023/04/24 02:40:11;;;;;;;9.70;7.38;;;12.60;99.90;;;;;;2074000;28;20381;-76
2023/04/24 02:41:11;;;;;;;9.93;6.85;;;12.60;99.90;;;;;;2079835;28;20037;-75
2023/04/24 02:42:12;;;;;;;8.82;6.82;;;12.60;99.90;;;;;;2082081;28;20048;-75
2023/04/24 02:43:12;;;;;;;10.75;7.00;;;12.60;99.90;;;;;;2082251;28;20044;-75
2023/04/24 02:44:13;;;;;;;9.20;7.13;;;12.60;99.90;;;;;;2073707;28;20042;-75
2023/04/24 02:45:14;;;;;;;8.48;6.93;;;12.60;99.90;;;;;;2083508;28;20082;-75
2023/04/24 02:46:15;;;;;;;12.05;7.60;;;12.60;99.90;;;;;;2097100;28;20021;-76
2023/04/24 02:47:15;;;;;;;9.25;7.72;;;12.60;99.90;;;;;;2091331;28;20024;-75
2023/04/24 02:48:16;;;;;;;7.65;6.40;;;12.60;99.90;;;;;;2082130;28;20538;-75
2023/04/24 02:49:17;;;;;;;7.03;6.25;;;12.60;99.90;;;;;;2082127;28;20249;-75
2023/04/24 02:50:17;;;;;;;8.65;6.80;;;12.60;99.90;;;;;;2084163;28;20035;-75
2023/04/24 02:51:18;;;;;;;8.43;7.32;;;12.60;99.90;;;;;;2073547;28;20108;-76
2023/04/24 02:52:19;;;;;;;10.43;7.50;;;12.50;99.90;;;;;;2081999;28;20159;-75
2023/04/24 02:53:19;;;;;;;8.82;7.57;;;12.60;99.90;;;;;;2081847;28;20522;-75
2023/04/24 02:54:20;;;;;;;9.65;7.45;;;12.50;99.90;;;;;;2075831;28;20052;-75
2023/04/24 02:55:21;;;;;;;8.52;7.10;;;12.50;99.90;;;;;;2073174;28;20614;-76
2023/04/24 02:56:21;;;;;;;8.20;6.80;;;12.50;99.90;;;;;;2081778;28;20068;-76
2023/04/24 02:57:22;;;;;;;9.18;7.47;;;12.50;99.90;;;;;;2090176;28;20025;-76
2023/04/24 02:58:22;;;;;;;8.85;6.90;;;12.50;99.90;;;;;;2075889;28;20029;-76
2023/04/24 02:59:23;;;;;;;8.45;7.10;;;12.50;99.90;;;;;;2073707;28;20048;-76
2023/04/24 03:00:24;;;;;;;8.00;7.03;;;12.40;99.90;;;;;;2081804;28;20500;-77
2023/04/24 03:01:25;;;;;;;9.95;7.35;;;12.40;99.90;;;;;;2080714;28;20112;-77
2023/04/24 03:02:25;;;;;;;7.68;6.80;;;12.40;99.90;;;;;;2081722;28;20056;-76
2023/04/24 03:03:26;;;;;;;7.95;6.97;;;12.40;99.90;;;;;;2089059;28;20108;-75
2023/04/24 03:04:26;;;;;;;8.18;7.20;;;12.40;99.90;;;;;;2081934;28;20029;-76
2023/04/24 03:05:27;;;;;;;10.98;7.88;;;12.40;99.90;;;;;;2068990;28;20115;-75
2023/04/24 03:06:28;;;;;;;9.05;7.00;;;12.40;99.90;;;;;;2082136;28;20020;-76
2023/04/24 03:07:28;;;;;;;8.77;7.18;;;12.40;99.90;;;;;;2083728;28;20021;-75
2023/04/24 03:08:29;;;;;;;9.38;7.28;;;12.40;99.90;;;;;;2073898;28;20025;-75
2023/04/24 03:09:29;;;;;;;9.15;7.50;;;12.40;99.90;;;;;;2071925;28;20048;-75
2023/04/24 03:10:30;;;;;;;7.65;6.85;;;12.40;99.90;;;;;;2081978;28;20033;-76
2023/04/24 03:11:30;;;;;;;8.20;6.90;;;12.40;99.90;;;;;;2082302;28;20060;-75
2023/04/24 03:12:31;;;;;;;8.13;6.70;;;12.40;99.90;;;;;;2082215;28;20025;-74
2023/04/24 03:13:32;;;;;;;8.75;7.25;;;12.40;99.90;;;;;;2083997;28;20075;-75
2023/04/24 03:14:32;;;;;;;8.45;6.75;;;12.40;99.90;;;;;;2070588;28;20065;-75
2023/04/24 03:15:33;;;;;;;7.43;6.35;;;12.40;99.90;;;;;;2082331;28;20039;-75
2023/04/24 03:16:34;;;;;;;9.10;7.43;;;12.30;99.90;;;;;;2083846;28;20798;-75
2023/04/24 03:17:35;;;;;;;7.97;6.78;;;12.40;99.90;;;;;;2091246;28;20484;-77
2023/04/24 03:18:35;;;;;;;7.38;6.25;;;12.40;99.90;;;;;;2091060;28;20493;-75
2023/04/24 03:19:38;;;;;;;7.78;6.13;;;12.40;99.90;;;;;;2081908;28;20679;-75
2023/04/24 03:20:46;;;;;;;6.93;6.07;;;12.40;99.90;;;;;;2074163;28;20476;-75
2023/04/24 03:21:48;;;;;;;8.52;6.65;;;12.40;99.90;;;;;;2081911;28;20053;-75
2023/04/24 03:22:49;;;;;;;7.50;6.47;;;12.40;99.90;;;;;;2075670;28;20574;-75
2023/04/24 03:23:50;;;;;;;7.57;6.10;;;12.40;99.90;;;;;;2070678;28;20520;-76
2023/04/24 03:24:51;;;;;;;6.70;5.60;;;12.40;99.90;;;;;;2075343;28;20021;-76
2023/04/24 03:25:53;;;;;;;6.95;5.88;;;12.40;99.90;;;;;;2077002;28;20091;-75
2023/04/24 03:26:55;;;;;;;8.30;5.60;;;12.40;99.90;;;;;;2083928;28;20039;-76
2023/04/24 03:28:22;;;;;;;7.63;5.85;;;12.50;99.90;;;;;;2086084;28;20120;-77
2023/04/24 03:29:29;;;;;;;7.32;5.93;;;12.50;99.90;;;;;;2090637;28;20534;-76
2023/04/24 03:30:30;;;;;;;6.80;5.95;;;12.50;99.90;;;;;;2073764;28;20029;-75
2023/04/24 03:31:33;;;;;;;8.13;5.80;;;12.50;99.90;;;;;;2074763;28;20116;-74
2023/04/24 03:32:34;;;;;;;7.05;5.80;;;12.50;99.90;;;;;;2083946;28;20025;-75
2023/04/24 03:33:35;;;;;;;6.82;5.95;;;12.50;99.90;;;;;;2083052;28;20479;-75
2023/04/24 03:34:36;;;;;;;6.90;6.10;;;12.50;99.90;;;;;;2077472;28;20040;-75
2023/04/24 03:35:37;;;;;;;6.78;6.07;;;12.50;99.90;;;;;;2081922;28;20012;-75
2023/04/24 03:36:42;;;;;;;7.25;5.82;;;12.50;99.90;;;;;;2074145;28;20108;-74
2023/04/24 03:37:43;;;;;;;6.22;5.55;;;12.50;99.90;;;;;;2082056;28;20032;-75
2023/04/24 03:39:02;;;;;;;5.95;5.25;;;12.40;99.90;;;;;;2081632;28;20037;-75
2023/04/24 03:40:08;;;;;;;7.35;5.88;;;12.40;99.90;;;;;;2076037;28;20028;-74
2023/04/24 03:41:10;;;;;;;6.10;5.43;;;12.40;99.90;;;;;;2075754;28;20028;-75
2023/04/24 03:42:18;;;;;;;6.95;5.78;;;12.40;99.90;;;;;;2080117;28;20505;-76
2023/04/24 03:43:27;;;;;;;6.63;5.82;;;12.40;99.90;;;;;;2075591;28;20025;-75
2023/04/24 03:44:30;;;;;;;7.65;5.88;;;12.40;99.90;;;;;;2073521;28;20184;-77
2023/04/24 03:45:31;;;;;;;6.45;5.53;;;12.40;99.90;;;;;;2065839;28;20523;-77
2023/04/24 03:46:31;;;;;;;8.68;4.43;;;12.40;99.90;;;;;;2081582;28;20407;-76
2023/04/24 03:47:34;;;;;;;6.03;4.40;;;12.40;99.90;;;;;;2081824;28;20021;-76
2023/04/24 03:48:38;;;;;;;6.43;5.15;;;12.40;99.90;;;;;;2073783;28;20028;-75
2023/04/24 03:49:40;;;;;;;6.70;4.60;;;12.40;99.90;;;;;;2075508;28;20073;-76
2023/04/24 03:50:40;;;;;;;5.88;4.30;;;12.40;99.90;;;;;;2081124;28;20132;-76
2023/04/24 03:51:44;;;;;;;5.97;4.18;;;12.40;99.90;;;;;;2073705;28;20026;-76
2023/04/24 03:52:55;;;;;;;7.40;4.93;;;12.50;99.90;;;;;;2074371;28;20025;-76
2023/04/24 03:54:07;;;;;;;8.32;4.90;;;12.50;99.90;;;;;;2074734;28;20383;-76
2023/04/24 03:55:12;;;;;;;9.23;5.00;;;12.50;99.90;;;;;;2075998;28;20021;-77
2023/04/24 03:56:17;;;;;;;8.23;3.95;;;12.50;99.90;;;;;;2076777;28;20446;-76
2023/04/24 03:57:17;;;;;;;6.00;3.92;;;12.50;99.90;;;;;;2079800;28;20111;-76
2023/04/24 03:58:29;;;;;;;7.85;4.18;;;12.50;99.90;;;;;;2074570;28;20025;-77
2023/04/24 03:59:30;;;;;;;7.53;4.20;;;12.50;99.90;;;;;;2073364;28;20816;-77
2023/04/24 04:00:57;;;;;;;5.10;3.60;;;12.50;99.90;;;;;;2081547;28;20542;-76
2023/04/24 04:02:19;;;;;;;6.15;3.40;;;12.60;99.90;;;;;;2087765;28;20589;-76
2023/04/24 04:03:21;;;;;;;4.85;3.40;;;12.60;99.90;;;;;;2073502;28;20405;-76
2023/04/24 04:04:21;;;;;;;5.70;3.38;;;12.60;99.90;;;;;;2073536;28;20075;-77
2023/04/24 04:05:22;;;;;;;6.97;2.97;;;12.60;99.90;;;;;;2080229;28;20094;-77
2023/04/24 04:06:22;;;;;;;3.35;2.80;;;12.70;99.90;;;;;;2081417;28;20029;-76
2023/04/24 04:07:25;;;;;;;4.20;3.00;;;12.70;99.90;;;;;;2072883;28;20032;-75
2023/04/24 04:08:26;;;;;;;3.92;2.67;;;12.70;99.90;;;;;;2067501;28;20022;-76
2023/04/24 04:09:27;;;;;;;3.78;2.38;;;12.80;99.90;;;;;;2063715;28;20532;-77
2023/04/24 04:10:27;;;;;;;4.80;2.90;;;12.80;99.90;;;;;;2064978;28;22197;-77
2023/04/24 04:11:28;;;;;;;3.40;2.38;;;12.80;99.90;;;;;;2073534;28;20014;-76
2023/04/24 04:12:29;;;;;;;3.63;2.28;;;12.80;99.90;;;;;;2082074;28;20096;-77
2023/04/24 04:13:30;;;;;;;4.07;2.50;;;12.90;99.90;;;;;;2082118;28;20029;-75
2023/04/24 04:14:31;;;;;;;4.00;2.17;;;12.90;99.90;;;;;;2073289;28;20064;-76
2023/04/24 04:15:32;;;;;;;3.80;2.40;;;12.90;99.90;;;;;;2065185;28;20104;-76
2023/04/24 04:16:33;;;;;;;2.75;2.17;;;12.90;99.90;;;;;;2065072;28;20034;-75
2023/04/24 04:17:37;;;;;;;2.47;2.10;;;12.90;99.90;;;;;;2075400;28;20068;-77
2023/04/24 04:18:40;;;;;;;2.58;2.05;;;12.90;99.90;;;;;;2075211;28;20025;-77
2023/04/24 04:19:41;;;;;;;2.22;2.00;;;12.90;99.90;;;;;;2065319;28;20251;-77
2023/04/24 04:20:42;;;;;;;2.22;1.92;;;13.00;99.90;;;;;;2073251;28;20037;-77
2023/04/24 04:21:45;;;;;;;3.22;2.10;;;13.00;99.90;;;;;;2065434;28;20032;-77
2023/04/24 04:23:18;;;;;;;3.67;2.00;;;13.00;99.90;;;;;;2072174;28;20090;-77
2023/04/24 04:24:42;;;;;;;3.75;2.03;;;13.00;99.90;;;;;;2081917;28;20487;-77
2023/04/24 04:25:44;;;;;;;3.30;1.85;;;13.00;99.90;;;;;;2073212;28;20018;-76
2023/04/24 04:26:46;;;;;;;4.32;2.05;;;13.00;99.90;;;;;;2065008;28;20053;-76
2023/04/24 04:27:52;;;;;;;2.60;2.00;;;13.00;99.90;;;;;;2067417;28;20124;-77
2023/04/24 04:28:53;;;;;;;2.38;1.90;;;13.00;99.90;;;;;;2072411;28;20060;-76
2023/04/24 04:29:56;;;;;;;2.13;1.92;;;13.00;99.90;;;;;;2065026;28;20481;-77
2023/04/24 04:30:57;;;;;;;2.00;1.70;;;13.00;99.90;;;;;;2065362;28;20056;-75
2023/04/24 04:31:58;;;;;;;2.50;1.90;;;13.00;99.90;;;;;;2068940;28;20045;-74
2023/04/24 04:33:00;;;;;;;2.40;1.90;;;13.00;99.90;;;;;;2066541;28;20029;-75
2023/04/24 04:34:01;;;;;;;4.97;1.90;;;13.00;99.90;;;;;;2075294;28;20269;-75
2023/04/24 04:35:02;;;;;;;5.30;1.75;;;13.00;99.90;;;;;;2073114;28;20040;-75
2023/04/24 04:36:05;;;;;;;2.25;1.73;;;13.00;99.90;;;;;;2065352;28;20038;-76
2023/04/24 04:37:06;;;;;;;4.63;2.03;;;13.00;99.90;;;;;;2073724;28;20025;-76
2023/04/24 04:38:44;;;;;;;5.97;2.10;;;13.00;99.90;;;;;;2069193;28;20127;-74
2023/04/24 04:40:06;;;;;;;4.60;2.10;;;13.00;99.90;;;;;;2073454;28;20034;-75
2023/04/24 04:41:11;;;;;;;2.13;1.90;;;13.00;99.90;;;;;;2066856;28;20052;-74
2023/04/24 04:42:13;;;;;;;4.00;1.77;;;13.00;99.90;;;;;;2065075;28;20045;-74
2023/04/24 04:43:15;;;;;;;2.78;2.00;;;13.00;99.90;;;;;;2067235;28;20516;-74
2023/04/24 04:44:23;;;;;;;1.77;1.60;;;13.00;99.90;;;;;;2062709;28;20057;-74
2023/04/24 04:45:26;;;;;;;1.70;1.60;;;12.90;99.90;;;;;;2057776;28;20031;-76
2023/04/24 04:46:47;;;;;;;3.75;1.70;;;12.90;99.90;;;;;;2074480;28;20052;-76
2023/04/24 04:48:03;;;;;;;1.70;1.60;;;12.90;99.90;;;;;;2070267;28;20420;-76
2023/04/24 04:49:04;;;;;;;2.22;1.70;;;12.90;99.90;;;;;;2074824;28;20087;-77
2023/04/24 04:50:05;;;;;;;2.30;1.80;;;12.90;99.90;;;;;;2075027;28;20049;-77
2023/04/24 04:51:07;;;;;;;2.92;1.77;;;12.90;99.90;;;;;;2082300;28;20025;-77
2023/04/24 04:52:07;;;;;;;1.95;1.73;;;13.00;99.90;;;;;;2082155;28;20488;-77
2023/04/24 04:53:08;;;;;;;1.92;1.70;;;13.00;99.90;;;;;;2066683;28;20112;-77
2023/04/24 04:54:12;;;;;;;1.70;1.60;;;13.00;99.90;;;;;;2065294;28;20026;-77
2023/04/24 04:55:13;;;;;;;1.83;1.65;;;13.00;99.90;;;;;;2062629;28;20033;-77
2023/04/24 04:56:40;;;;;;;2.35;1.60;;;13.10;99.90;;;;;;2065716;28;20095;-77
2023/04/24 04:57:41;;;;;;;2.40;2.15;;;13.10;99.90;;;;;;2066950;28;20537;-77
2023/04/24 04:58:42;;;;;;;4.45;2.10;;;13.20;99.90;;;;;;2074904;28;20025;-77
2023/04/24 04:59:46;;;;;;;3.60;2.90;;;13.20;99.90;;;;;;2087653;28;20550;-76
2023/04/24 05:00:55;;;;;;;7.10;4.85;;;13.30;99.90;;;;;;2070961;28;20029;-79
2023/04/24 05:02:03;;;;;;;9.18;5.80;;;13.30;99.90;;;;;;2063434;28;20100;-76
2023/04/24 05:03:05;;;;;;;10.75;6.80;;;13.40;99.90;;;;;;2064961;28;20252;-72
2023/04/24 05:04:05;;;;;;;17.73;8.93;;;13.40;99.90;;;;;;2065070;28;20461;-69
2023/04/24 05:05:07;;;;;;;10.68;6.68;;;13.40;99.90;;;;;;2065088;28;20940;-70
2023/04/24 05:06:07;;;;;;;9.13;5.80;;;13.50;99.90;;;;;;2075526;28;20022;-72
2023/04/24 05:07:11;;;;;;;11.32;6.15;;;13.50;99.90;;;;;;2081826;28;20064;-71
2023/04/24 05:08:15;;;;;;;14.73;7.32;;;13.50;99.90;;;;;;2073133;28;20438;-76
2023/04/24 05:09:16;;;;;;;9.48;5.47;;;13.60;99.90;;;;;;2066225;28;20922;-76
2023/04/24 05:10:25;;;;;;;10.90;5.45;;;13.60;99.90;;;;;;2068496;28;20037;-76
2023/04/24 05:11:28;;;;;;;8.77;5.47;;;13.60;99.90;;;;;;2065878;28;20030;-77
2023/04/24 05:12:30;;;;;;;10.32;5.95;;;13.70;99.90;;;;;;2066387;28;20049;-76
2023/04/24 05:13:32;;;;;;;10.20;5.90;;;13.70;99.90;;;;;;2062928;28;20022;-75
2023/04/24 05:14:33;;;;;;;9.85;5.30;;;13.70;99.90;;;;;;2063353;28;20101;-76
2023/04/24 05:15:34;;;;;;;8.52;5.43;;;13.70;99.90;;;;;;2068272;28;20026;-77
2023/04/24 05:16:36;;;;;;;9.35;5.38;;;13.80;99.90;;;;;;2074496;28;20056;-75
2023/04/24 05:17:39;;;;;;;8.35;4.97;;;13.80;99.90;;;;;;2078008;28;20388;-75
2023/04/24 05:18:41;;;;;;;6.47;4.03;;;13.80;99.90;;;;;;2072763;28;20025;-74
2023/04/24 05:19:44;;;;;;;6.03;4.20;;;13.90;99.90;;;;;;2075151;28;20527;-72
2023/04/24 05:20:45;;;;;;;7.78;5.13;;;13.90;99.90;;;;;;2084566;28;20419;-72
2023/04/24 05:21:46;;;;;;;6.13;4.60;;;14.00;99.90;;;;;;2073589;28;20033;-75
2023/04/24 05:22:46;;;;;;;5.03;4.03;;;14.00;99.90;;;;;;2063212;28;20030;-75
2023/04/24 05:23:48;;;;;;;6.65;4.30;;;14.10;99.90;;;;;;2068500;28;20034;-75